Time;durP1;ratioP1;P1;durP2;ratioP2;P2;SDS_P1;SDS_P2;PMS_P1;PMS_P2;Temp;Humidity;BMP_temperature;BMP_pressure;BME280_temperature;BME280_humidity;BME280_pressure;Samples;Min_cycle;Max_cycle;Signal;HPM_P1;HPM_P2
2023/04/02 00:01:36;;;;;;;1.43;0.97;;;;;;;-145.69;100.00;52509.75;5072809;28;20208;-83
2023/04/02 00:04:20;;;;;;;5.13;1.10;;;;;;;-145.69;100.00;52517.66;5072370;28;20217;-82
2023/04/02 00:06:49;;;;;;;3.60;0.90;;;;;;;-145.69;100.00;52537.47;5072343;28;20266;-82
2023/04/02 00:09:30;;;;;;;1.17;1.07;;;;;;;-145.69;100.00;52513.69;5072636;28;20569;-83
2023/04/02 00:11:59;;;;;;;0.70;0.70;;;;;;;-145.69;100.00;52557.28;5072683;28;20199;-84
2023/04/02 00:14:28;;;;;;;1.53;0.83;;;;;;;-145.69;100.00;52543.41;5072493;28;20224;-83
2023/04/02 00:17:00;;;;;;;1.10;0.90;;;;;;;-145.69;100.00;52551.31;5072283;28;20202;-81
2023/04/02 00:19:36;;;;;;;0.70;0.70;;;;;;;-145.69;100.00;52527.56;5072617;28;20278;-83
2023/04/02 00:22:06;;;;;;;1.00;0.70;;;;;;;-145.69;100.00;52523.59;5072470;28;20207;-83
2023/04/02 00:24:33;;;;;;;1.53;0.87;;;;;;;-145.69;100.00;52511.72;5061772;28;20233;-82
2023/04/02 00:27:00;;;;;;;1.50;0.80;;;;;;;-145.69;100.00;52521.63;5052335;28;20234;-83
2023/04/02 00:29:29;;;;;;;1.00;0.90;;;;;;;-145.69;100.00;52517.66;5052354;28;20199;-81
2023/04/02 00:31:58;;;;;;;0.80;0.70;;;;;;;-145.69;100.00;52553.31;5052167;28;20211;-82
2023/04/02 00:34:33;;;;;;;3.40;1.00;;;;;;;-145.69;100.00;52551.31;5052499;28;20219;-82
2023/04/02 00:37:01;;;;;;;0.87;0.70;;;;;;;-145.69;100.00;52543.41;5052520;28;20205;-82
2023/04/02 00:39:38;;;;;;;1.13;0.90;;;;;;;-145.69;100.00;52505.78;5052446;28;20202;-82
2023/04/02 00:42:04;;;;;;;2.80;0.80;;;;;;;-145.69;100.00;52545.38;5054912;28;20211;-82
2023/04/02 00:44:37;;;;;;;1.60;0.90;;;;;;;-145.69;100.00;52533.50;5055867;28;20318;-82
2023/04/02 00:47:13;;;;;;;2.80;0.90;;;;;;;-145.69;100.00;52499.84;5069490;28;20685;-83
2023/04/02 00:49:41;;;;;;;0.93;0.90;;;;;;;-145.69;100.00;52551.31;5076352;28;20202;-84
2023/04/02 00:52:11;;;;;;;2.00;0.90;;;;;;;-145.69;100.00;52551.31;5076285;28;20202;-84
2023/04/02 00:54:43;;;;;;;3.50;0.90;;;;;;;-145.69;100.00;52551.31;5076353;28;20596;-84
2023/04/02 00:57:16;;;;;;;1.43;0.80;;;;;;;-145.69;100.00;52543.41;5076291;28;20293;-84
2023/04/02 00:59:53;;;;;;;2.57;0.83;;;;;;;-145.69;100.00;52484.00;5076102;28;20691;-84
2023/04/02 01:02:27;;;;;;;2.03;1.00;;;;;;;-145.69;100.00;52537.47;5075873;28;20624;-83
2023/04/02 01:04:54;;;;;;;4.83;0.83;;;;;;;-145.69;100.00;52543.41;5075782;28;20205;-84
2023/04/02 01:07:47;;;;;;;1.97;1.07;;;;;;;-145.69;100.00;52547.38;5076116;28;20628;-83
2023/04/02 01:10:41;;;;;;;2.37;0.90;;;;;;;-145.69;100.00;52535.47;5075863;28;20203;-83
2023/04/02 01:13:20;;;;;;;1.77;1.07;;;;;;;-145.69;100.00;52531.53;5075360;28;20202;-84
2023/04/02 01:15:54;;;;;;;0.90;0.80;;;;;;;-145.69;100.00;52539.44;5075676;28;20221;-83
2023/04/02 01:18:39;;;;;;;1.40;0.83;;;;;;;-145.69;100.00;52543.41;5075816;28;20557;-83
2023/04/02 01:21:14;;;;;;;1.43;0.77;;;;;;;-145.69;100.00;52541.44;5075578;28;20285;-83
2023/04/02 01:23:53;;;;;;;2.90;0.97;;;;;;;-145.69;100.00;52511.72;5075240;28;20212;-83
2023/04/02 01:26:40;;;;;;;4.73;1.00;;;;;;;-145.69;100.00;52543.41;5055399;28;20210;-83
2023/04/02 01:29:12;;;;;;;1.50;0.83;;;;;;;-145.69;100.00;52543.41;5055378;28;20207;-83
2023/04/02 01:31:40;;;;;;;2.50;0.87;;;;;;;-145.69;100.00;52511.72;5067144;28;20191;-83
2023/04/02 01:34:10;;;;;;;3.63;1.00;;;;;;;-145.69;100.00;52573.13;5074687;28;20201;-83
2023/04/02 01:36:44;;;;;;;0.73;0.70;;;;;;;-145.69;100.00;52509.75;5075188;28;20653;-83
2023/04/02 01:39:22;;;;;;;4.77;1.03;;;;;;;-145.69;100.00;52567.16;5075176;28;20210;-80
2023/04/02 01:41:57;;;;;;;3.80;0.93;;;;;;;-145.69;100.00;52533.50;5074923;28;20316;-80
2023/04/02 01:44:36;;;;;;;0.70;0.70;;;;;;;-145.69;100.00;52539.44;5074691;28;20230;-81
2023/04/02 01:47:07;;;;;;;2.00;0.93;;;;;;;-145.69;100.00;52563.22;5074638;28;20223;-82
2023/04/02 01:49:33;;;;;;;1.93;0.90;;;;;;;-145.69;100.00;52555.28;5074551;28;20191;-82
2023/04/02 01:52:00;;;;;;;1.83;0.90;;;;;;;-145.69;100.00;52581.03;5074267;28;20202;-81
2023/04/02 01:54:27;;;;;;;5.97;1.00;;;;;;;-145.69;100.00;52563.22;5074726;28;20556;-82
2023/04/02 01:56:57;;;;;;;2.17;1.20;;;;;;;-145.69;100.00;52537.47;5074299;28;20199;-82
2023/04/02 01:59:25;;;;;;;1.03;0.93;;;;;;;-145.69;100.00;52543.41;5074419;28;20669;-82
2023/04/02 02:01:58;;;;;;;1.60;1.03;;;;;;;-145.69;100.00;52555.28;5074699;28;20202;-82
2023/04/02 02:04:25;;;;;;;2.63;1.17;;;;;;;-145.69;100.00;52561.22;5074417;28;20202;-82
2023/04/02 02:06:52;;;;;;;2.03;1.10;;;;;;;-145.69;100.00;52557.28;5074548;28;20222;-82
2023/04/02 02:09:23;;;;;;;2.80;1.00;;;;;;;-145.69;100.00;52523.59;5074253;28;20199;-82
2023/04/02 02:11:50;;;;;;;3.67;1.10;;;;;;;-145.69;100.00;52547.38;5074520;28;20202;-82
2023/04/02 02:14:23;;;;;;;1.67;0.80;;;;;;;-145.69;100.00;52543.41;5074407;28;20202;-81
2023/04/02 02:16:55;;;;;;;2.40;1.00;;;;;;;-145.69;100.00;52535.47;5072460;28;20202;-83
2023/04/02 02:19:27;;;;;;;1.90;0.90;;;;;;;-145.69;100.00;52533.50;5074010;28;20195;-82
2023/04/02 02:21:56;;;;;;;3.53;0.70;;;;;;;-145.69;100.00;52551.31;5054168;28;20203;-82
2023/04/02 02:24:25;;;;;;;1.57;0.77;;;;;;;-145.69;100.00;52527.56;5058028;28;20214;-82
2023/04/02 02:27:14;;;;;;;1.23;0.90;;;;;;;-145.69;100.00;52543.41;5073727;28;20203;-82
2023/04/02 02:29:46;;;;;;;10.03;1.30;;;;;;;-145.69;100.00;52537.47;5074088;28;20293;-82
2023/04/02 02:32:17;;;;;;;1.40;0.90;;;;;;;-145.69;100.00;52513.69;5074007;28;20205;-82
2023/04/02 02:34:49;;;;;;;3.37;1.00;;;;;;;-145.69;100.00;52527.56;5073869;28;20198;-83
2023/04/02 02:37:22;;;;;;;2.90;0.87;;;;;;;-145.69;100.00;52535.47;5074131;28;20207;-83
2023/04/02 02:39:53;;;;;;;4.60;0.80;;;;;;;-145.69;100.00;52549.34;5073938;28;20581;-83
2023/04/02 02:42:27;;;;;;;1.20;0.97;;;;;;;-145.69;100.00;52547.38;5073579;28;20199;-82
2023/04/02 02:44:56;;;;;;;0.87;0.80;;;;;;;-145.69;100.00;52527.56;5073903;28;20593;-82
2023/04/02 02:47:29;;;;;;;1.20;0.77;;;;;;;-145.69;100.00;52533.50;5073483;28;20246;-82
2023/04/02 02:49:59;;;;;;;7.43;0.90;;;;;;;-145.69;100.00;52491.91;5073622;28;20202;-82
2023/04/02 02:52:28;;;;;;;2.60;0.90;;;;;;;-145.69;100.00;52535.47;5073711;28;20665;-81
2023/04/02 02:54:57;;;;;;;1.77;0.80;;;;;;;-145.69;100.00;52547.38;5073270;28;20852;-82
2023/04/02 02:57:28;;;;;;;3.20;0.70;;;;;;;-145.69;100.00;52555.28;5073369;28;20199;-81
2023/04/02 02:59:58;;;;;;;2.57;0.77;;;;;;;-145.69;100.00;52523.59;5073242;28;20234;-81
2023/04/02 03:02:28;;;;;;;0.97;0.73;;;;;;;-145.69;100.00;52547.38;5073549;28;20194;-81
2023/04/02 03:04:57;;;;;;;1.60;0.90;;;;;;;-145.69;100.00;52535.47;5072940;28;20210;-82
2023/04/02 03:07:28;;;;;;;1.23;0.73;;;;;;;-145.69;100.00;52555.28;5073275;28;20276;-82
2023/04/02 03:10:03;;;;;;;3.83;0.70;;;;;;;-145.69;100.00;52523.59;5073153;28;20624;-82
2023/04/02 03:12:38;;;;;;;0.83;0.70;;;;;;;-145.69;100.00;52555.28;5073393;28;20198;-82
2023/04/02 03:15:15;;;;;;;2.97;1.00;;;;;;;-145.69;100.00;52525.59;5073065;28;20695;-81
2023/04/02 03:17:47;;;;;;;1.03;0.73;;;;;;;-145.69;100.00;52543.41;5072463;28;20710;-81
2023/04/02 03:20:21;;;;;;;1.60;0.80;;;;;;;-145.69;100.00;52503.81;5072918;28;20202;-83
2023/04/02 03:22:55;;;;;;;3.40;0.80;;;;;;;-145.69;100.00;52539.44;5073366;28;20198;-82
2023/04/02 03:25:28;;;;;;;0.83;0.80;;;;;;;-145.69;100.00;52547.38;5073276;28;20210;-82
2023/04/02 03:28:01;;;;;;;3.30;0.70;;;;;;;-145.69;100.00;52547.38;5073131;28;20233;-82
2023/04/02 03:30:33;;;;;;;5.00;0.73;;;;;;;-145.69;100.00;52559.25;5072825;28;20203;-82
2023/04/02 03:33:05;;;;;;;2.57;1.00;;;;;;;-145.69;100.00;52543.41;5072661;28;20195;-82
2023/04/02 03:35:38;;;;;;;1.47;0.60;;;;;;;-145.69;100.00;52531.53;5073168;28;20290;-81
2023/04/02 03:38:14;;;;;;;1.83;0.97;;;;;;;-145.69;100.00;52547.38;5072910;28;20209;-81
2023/04/02 03:40:44;;;;;;;4.70;0.73;;;;;;;-145.69;100.00;52523.59;5073014;28;20210;-81
2023/04/02 03:43:23;;;;;;;3.80;0.87;;;;;;;-145.69;100.00;52543.41;5072838;28;20227;-81
2023/04/02 03:45:57;;;;;;;2.33;1.10;;;;;;;-145.69;100.00;52545.38;5072541;28;20688;-82
2023/04/02 03:48:31;;;;;;;1.60;0.60;;;;;;;-145.69;100.00;52527.56;5070398;28;20223;-82
2023/04/02 03:51:03;;;;;;;0.73;0.73;;;;;;;-145.69;100.00;52571.13;5072552;28;20202;-82
2023/04/02 03:53:31;;;;;;;1.13;0.87;;;;;;;-145.69;100.00;52517.66;5072616;28;20269;-81
2023/04/02 03:55:58;;;;;;;0.90;0.90;;;;;;;-145.69;100.00;52525.59;5071803;28;20581;-82
2023/04/02 03:58:32;;;;;;;0.87;0.87;;;;;;;-145.69;100.00;52547.38;5073069;28;20286;-82
2023/04/02 04:01:06;;;;;;;2.03;0.97;;;;;;;-145.69;100.00;52515.69;5072753;28;20199;-82
2023/04/02 04:03:41;;;;;;;2.87;0.80;;;;;;;-145.69;100.00;52527.56;5072986;28;20202;-81
2023/04/02 04:06:10;;;;;;;1.90;0.70;;;;;;;-145.69;100.00;52531.53;5072450;28;20198;-82
2023/04/02 04:08:43;;;;;;;3.07;0.90;;;;;;;-145.69;100.00;52551.31;5072718;28;20225;-81
2023/04/02 04:11:15;;;;;;;1.33;0.87;;;;;;;-145.69;100.00;52531.53;5072556;28;20199;-81
2023/04/02 04:13:49;;;;;;;0.60;0.60;;;;;;;-145.69;100.00;52543.41;5057500;28;20206;-81
2023/04/02 04:16:25;;;;;;;1.43;0.60;;;;;;;-145.69;100.00;52531.53;5053928;28;20202;-82
2023/04/02 04:19:00;;;;;;;1.07;0.70;;;;;;;-145.69;100.00;52539.44;5056663;28;20194;-81
2023/04/02 04:21:36;;;;;;;2.20;0.83;;;;;;;-145.69;100.00;52523.59;5056540;28;20207;-81
2023/04/02 04:24:05;;;;;;;1.30;0.90;;;;;;;-145.69;100.00;52515.69;5075702;28;20237;-82
2023/04/02 04:26:41;;;;;;;1.03;0.90;;;;;;;-145.69;100.00;52525.59;5076218;28;20199;-81
2023/04/02 04:29:23;;;;;;;1.47;0.80;;;;;;;-145.69;100.00;52521.63;5075855;28;20236;-81
2023/04/02 04:31:54;;;;;;;2.50;0.93;;;;;;;-145.69;100.00;52545.38;5076452;28;20203;-81
2023/04/02 04:34:28;;;;;;;3.77;1.00;;;;;;;-145.69;100.00;52577.06;5076327;28;20205;-82
2023/04/02 04:37:00;;;;;;;4.13;1.23;;;;;;;-145.69;100.00;52517.66;5075899;28;20312;-81
2023/04/02 04:39:34;;;;;;;4.27;0.83;;;;;;;-145.69;100.00;52527.56;5075363;28;20195;-81
2023/04/02 04:42:04;;;;;;;2.50;1.00;;;;;;;-145.69;100.00;52557.28;5076164;28;20210;-81
2023/04/02 04:44:40;;;;;;;1.20;0.70;;;;;;;-145.69;100.00;52535.47;5075721;28;20226;-82
2023/04/02 04:47:15;;;;;;;4.40;0.70;;;;;;;-145.69;100.00;52515.69;5076022;28;20616;-82
2023/04/02 04:49:47;;;;;;;0.77;0.70;;;;;;;-145.69;100.00;52561.22;5075785;28;20234;-81
2023/04/02 04:52:20;;;;;;;0.67;0.67;;;;;;;-145.69;100.00;52557.28;5075460;28;20198;-81
2023/04/02 04:54:47;;;;;;;1.90;0.90;;;;;;;-145.69;100.00;52517.66;5075112;28;20226;-81
2023/04/02 04:57:27;;;;;;;0.93;0.80;;;;;;;-145.69;100.00;52541.44;5075723;28;20195;-81
2023/04/02 04:59:59;;;;;;;5.83;1.00;;;;;;;-145.69;100.00;52551.31;5075763;28;20198;-81
2023/04/02 05:02:32;;;;;;;0.97;0.80;;;;;;;-145.69;100.00;52547.38;5075516;28;20535;-81
2023/04/02 05:05:02;;;;;;;5.17;0.80;;;;;;;-145.69;100.00;52555.28;5075749;28;20207;-82
2023/04/02 05:07:31;;;;;;;1.63;1.00;;;;;;;-145.69;100.00;52511.72;5075196;28;20210;-82
2023/04/02 05:10:08;;;;;;;1.03;0.93;;;;;;;-145.69;100.00;52515.69;5075580;28;20225;-81
2023/04/02 05:12:37;;;;;;;1.30;1.00;;;;;;;-145.69;100.00;52531.53;5075555;28;20195;-82
2023/04/02 05:15:12;;;;;;;2.70;0.80;;;;;;;-145.69;100.00;52565.19;5075332;28;20530;-82
2023/04/02 05:17:46;;;;;;;1.20;0.70;;;;;;;-145.69;100.00;52557.28;5075352;28;20205;-82
2023/04/02 05:20:21;;;;;;;1.23;0.80;;;;;;;-145.69;100.00;52543.41;5075465;28;20209;-82
2023/04/02 05:22:53;;;;;;;2.67;1.10;;;;;;;-145.69;100.00;52533.50;5075004;28;20293;-83
2023/04/02 05:25:25;;;;;;;1.23;0.90;;;;;;;-145.69;100.00;52535.47;5075147;28;20198;-83
2023/04/02 05:27:59;;;;;;;1.20;0.90;;;;;;;-145.69;100.00;52529.53;5074969;28;20230;-83
2023/04/02 05:30:45;;;;;;;1.37;0.87;;;;;;;-145.69;100.00;52573.13;5075358;28;20298;-82
2023/04/02 05:33:21;;;;;;;2.77;0.70;;;;;;;-145.69;100.00;52525.59;5075109;28;20195;-81
2023/04/02 05:35:57;;;;;;;2.13;0.70;;;;;;;-145.69;100.00;52517.66;5074903;28;20210;-81
2023/04/02 05:38:28;;;;;;;2.80;0.90;;;;;;;-145.69;100.00;52549.34;5073708;28;20201;-82
2023/04/02 05:41:00;;;;;;;1.87;0.80;;;;;;;-145.69;100.00;52539.44;5074903;28;20201;-82
2023/04/02 05:43:30;;;;;;;1.70;1.13;;;;;;;-145.69;100.00;52537.47;5074907;28;20288;-82
2023/04/02 05:46:01;;;;;;;1.20;1.10;;;;;;;-145.69;100.00;52515.69;5075034;28;20195;-81
2023/04/02 05:48:33;;;;;;;5.83;0.73;;;;;;;-145.69;100.00;52507.75;5074458;28;20222;-83
2023/04/02 05:51:06;;;;;;;3.00;0.90;;;;;;;-145.69;100.00;52545.38;5074622;28;20653;-82
2023/04/02 05:53:36;;;;;;;1.03;0.70;;;;;;;-145.69;100.00;52559.25;5074942;28;20222;-81
2023/04/02 05:56:07;;;;;;;1.27;0.80;;;;;;;-145.69;100.00;52523.59;5074926;28;20206;-82
2023/04/02 05:58:37;;;;;;;2.57;1.10;;;;;;;-145.69;100.00;52549.34;5074580;28;20202;-81
2023/04/02 06:01:21;;;;;;;2.13;1.13;;;;;;;-145.69;100.00;52535.47;5074537;28;20689;-81
2023/04/02 06:03:55;;;;;;;1.53;1.20;;;;;;;-145.69;100.00;52547.38;5071808;28;20218;-84
2023/04/02 06:06:33;;;;;;;1.20;1.10;;;;;;;-145.69;100.00;52501.81;5074419;28;20199;-83
2023/04/02 06:09:07;;;;;;;6.10;1.90;;;;;;;-145.69;100.00;52503.81;5074633;28;20566;-82
2023/04/02 06:11:41;;;;;;;6.97;2.10;;;;;;;-145.69;100.00;52533.50;5074591;28;20209;-84
2023/04/02 06:14:10;;;;;;;4.50;2.30;;;;;;;-145.69;100.00;52551.31;5074616;28;20206;-84
2023/04/02 06:16:37;;;;;;;5.27;2.77;;;;;;;-145.69;100.00;52535.47;5074662;28;20233;-84
2023/04/02 06:19:13;;;;;;;4.67;2.63;;;;;;;-145.69;100.00;52513.69;5074176;28;20221;-84
2023/04/02 06:21:52;;;;;;;1.83;1.00;;;;;;;-145.69;100.00;52529.53;5072899;28;20200;-84
2023/04/02 06:24:23;;;;;;;1.00;0.90;;;;;;;-145.69;100.00;52509.75;5074500;28;20199;-83
2023/04/02 06:26:55;;;;;;;2.17;0.70;;;;;;;-145.69;100.00;52527.56;5074160;28;20199;-83
2023/04/02 06:29:28;;;;;;;0.70;0.70;;;;;;;-145.69;100.00;52525.59;5074049;28;20230;-82
2023/04/02 06:32:02;;;;;;;1.03;0.80;;;;;;;-145.69;100.00;52527.56;5073958;28;20226;-81
2023/04/02 06:34:30;;;;;;;2.60;0.97;;;;;;;-145.69;100.00;52497.84;5073107;28;20195;-83
2023/04/02 06:37:02;;;;;;;1.83;0.90;;;;;;;-145.69;100.00;52525.59;5073505;28;20201;-82
2023/04/02 06:39:29;;;;;;;1.00;0.90;;;;;;;-145.69;100.00;52531.53;5072979;28;20228;-83
2023/04/02 06:42:01;;;;;;;0.93;0.80;;;;;;;-145.69;100.00;52513.69;5073662;28;20205;-82
2023/04/02 06:44:31;;;;;;;1.10;1.00;;;;;;;-145.69;100.00;52555.28;5073425;28;20230;-82
2023/04/02 06:47:03;;;;;;;0.70;0.70;;;;;;;-145.69;100.00;52505.78;5073870;28;20206;-82
2023/04/02 06:49:34;;;;;;;0.63;0.63;;;;;;;-145.69;100.00;52505.78;5073526;28;20240;-82
2023/04/02 06:52:06;;;;;;;2.20;0.80;;;;;;;-145.69;100.00;52495.88;5073813;28;20202;-81
2023/04/02 06:54:32;;;;;;;2.20;1.20;;;;;;;-145.69;100.00;52484.00;5072903;28;20443;-81
2023/04/02 06:57:00;;;;;;;2.10;0.80;;;;;;;-145.69;100.00;52497.84;5073275;28;20202;-81
2023/04/02 06:59:27;;;;;;;1.37;0.80;;;;;;;-145.69;100.00;52499.84;5073637;28;20289;-82
2023/04/02 07:01:57;;;;;;;0.60;0.60;;;;;;;-145.69;100.00;52529.53;5073494;28;20235;-81
2023/04/02 07:04:29;;;;;;;2.00;0.60;;;;;;;-145.69;100.00;52525.59;5073366;28;20209;-82
2023/04/02 07:06:55;;;;;;;1.33;0.50;;;;;;;-145.69;100.00;52487.97;5073253;28;20202;-82
2023/04/02 07:09:24;;;;;;;0.50;0.47;;;;;;;-145.69;100.00;52487.97;5072896;28;20226;-82
2023/04/02 07:11:51;;;;;;;1.80;0.60;;;;;;;-145.69;100.00;52515.69;5072865;28;20268;-81
2023/04/02 07:14:17;;;;;;;19.37;8.10;;;;;;;-145.69;100.00;52497.84;5073217;28;20589;-81
2023/04/02 07:16:44;;;;;;;6.93;4.10;;;;;;;-145.69;100.00;52480.03;5073292;28;20203;-81
2023/04/02 07:19:18;;;;;;;3.77;1.47;;;;;;;-145.69;100.00;52535.47;5073104;28;20242;-81
2023/04/02 07:21:46;;;;;;;1.87;1.00;;;;;;;-145.69;100.00;52523.59;5073245;28;20202;-81
2023/04/02 07:24:12;;;;;;;0.63;0.63;;;;;;;-145.69;100.00;52541.44;5073068;28;20293;-81
2023/04/02 07:26:40;;;;;;;1.93;0.80;;;;;;;-145.69;100.00;52515.69;5073289;28;20237;-81
2023/04/02 07:29:07;;;;;;;2.67;1.57;;;;;;;-145.69;100.00;52495.88;5072910;28;20585;-80
2023/04/02 07:31:37;;;;;;;5.00;1.90;;;;;;;-145.69;100.00;52499.84;5072846;28;20210;-82
2023/04/02 07:34:07;;;;;;;1.20;0.93;;;;;;;-145.69;100.00;52460.22;5072250;28;20665;-81
2023/04/02 07:36:33;;;;;;;1.43;0.77;;;;;;;-145.69;100.00;52503.81;5072655;28;20195;-81
2023/04/02 07:39:00;;;;;;;0.80;0.80;;;;;;;-145.69;100.00;52519.63;5072805;28;20199;-81
2023/04/02 07:41:27;;;;;;;1.20;0.60;;;;;;;-145.69;100.00;52551.31;5072217;28;20191;-80
2023/04/02 07:43:55;;;;;;;3.83;1.10;;;;;;;-145.69;100.00;52489.94;5071934;28;20321;-80
2023/04/02 07:46:30;;;;;;;1.20;1.00;;;;;;;-145.69;100.00;52503.81;5072263;28;20200;-81
2023/04/02 07:48:59;;;;;;;1.27;1.00;;;;;;;-145.69;100.00;52476.06;5070443;28;20213;-80
2023/04/02 07:51:26;;;;;;;1.83;0.97;;;;;;;-145.69;100.00;52527.56;5076749;28;20664;-81
2023/04/02 07:53:54;;;;;;;0.60;0.60;;;;;;;-145.69;100.00;52484.00;5078317;28;20645;-79
2023/04/02 07:56:23;;;;;;;3.30;1.63;;;;;;;-145.69;100.00;52458.25;5078190;28;20285;-80
2023/04/02 07:58:52;;;;;;;4.60;1.67;;;;;;;-145.69;100.00;52535.47;5078476;28;20194;-80
2023/04/02 08:01:22;;;;;;;0.70;0.70;;;;;;;-145.69;100.00;52525.59;5078794;28;20661;-80
2023/04/02 08:03:49;;;;;;;1.90;0.60;;;;;;;-145.69;100.00;52515.69;5078350;28;20266;-80
2023/04/02 08:06:16;;;;;;;14.60;3.83;;;;;;;-145.69;100.00;52476.06;5078630;28;20199;-81
2023/04/02 08:08:43;;;;;;;7.10;2.47;;;;;;;-145.69;100.00;52489.94;5078470;28;20201;-80
2023/04/02 08:11:10;;;;;;;1.80;0.90;;;;;;;-145.69;100.00;52493.91;5069170;28;20286;-80
2023/04/02 08:13:37;;;;;;;0.97;0.60;;;;;;;-145.69;100.00;52513.69;5058758;28;20650;-80
2023/04/02 08:16:05;;;;;;;0.60;0.53;;;;;;;-145.69;100.00;52460.22;5058997;28;20616;-80
2023/04/02 08:18:34;;;;;;;0.80;0.80;;;;;;;-145.69;100.00;52472.13;5058737;28;20203;-80
2023/04/02 08:21:01;;;;;;;1.27;0.60;;;;;;;-145.69;100.00;52476.06;5071497;28;20281;-79
2023/04/02 08:23:28;;;;;;;1.17;0.50;;;;;;;-145.69;100.00;52487.97;5079017;28;20201;-80
2023/04/02 08:26:00;;;;;;;7.33;3.77;;;;;;;-145.69;100.00;52462.22;5079080;28;20195;-81
2023/04/02 08:28:29;;;;;;;2.07;1.23;;;;;;;-145.69;100.00;52476.06;5078528;28;20642;-80
2023/04/02 08:30:56;;;;;;;2.10;1.00;;;;;;;-145.69;100.00;52499.84;5078648;28;20230;-80
2023/04/02 08:33:22;;;;;;;0.90;0.80;;;;;;;-145.69;100.00;52487.97;5078435;28;20566;-81
2023/04/02 08:35:50;;;;;;;2.90;1.57;;;;;;;-145.69;100.00;52480.03;5078940;28;20203;-81
2023/04/02 08:38:20;;;;;;;7.17;2.87;;;;;;;-145.69;100.00;52505.78;5079022;28;20202;-80
2023/04/02 08:40:49;;;;;;;2.27;1.13;;;;;;;-145.69;100.00;52452.31;5078456;28;20236;-80
2023/04/02 08:43:41;;;;;;;0.60;0.60;;;;;;;-145.69;100.00;52511.72;5077636;28;20701;-80
2023/04/02 08:46:14;;;;;;;2.60;1.63;;;;;;;-145.69;100.00;52442.41;5078586;28;20209;-80
2023/04/02 08:48:44;;;;;;;0.80;0.80;;;;;;;-145.69;100.00;52495.88;5078425;28;20202;-80
2023/04/02 08:51:22;;;;;;;0.40;0.40;;;;;;;-145.69;100.00;52480.03;5078578;28;20210;-80
2023/04/02 08:53:49;;;;;;;0.40;0.40;;;;;;;-145.69;100.00;52466.16;5059081;28;20207;-80
2023/04/02 08:56:24;;;;;;;0.90;0.60;;;;;;;-145.69;100.00;52525.59;5078321;28;20195;-80
2023/04/02 08:58:54;;;;;;;0.40;0.40;;;;;;;-145.69;100.00;52452.31;5078646;28;20202;-81
2023/04/02 09:01:36;;;;;;;0.50;0.50;;;;;;;-145.69;100.00;52456.28;5076597;28;20199;-80
2023/04/02 09:04:05;;;;;;;0.57;0.57;;;;;;;-145.69;100.00;52523.59;5074769;28;20660;-80
2023/04/02 09:06:33;;;;;;;0.50;0.50;;;;;;;-145.69;100.00;52466.16;5074721;28;20195;-80
2023/04/02 09:09:00;;;;;;;0.50;0.50;;;;;;;-145.69;100.00;52424.59;5074858;28;20207;-80
2023/04/02 09:11:35;;;;;;;0.40;0.40;;;;;;;-145.69;100.00;52499.84;5075214;28;20198;-80
2023/04/02 09:14:10;;;;;;;0.40;0.40;;;;;;;-145.69;100.00;52462.22;5075172;28;20272;-80
2023/04/02 09:16:44;;;;;;;0.53;0.30;;;;;;;-145.69;100.00;52428.53;5074808;28;20199;-80
2023/04/02 09:19:19;;;;;;;1.93;0.47;;;;;;;-145.69;100.00;52480.03;5075095;28;20202;-80
2023/04/02 09:21:58;;;;;;;0.33;0.33;;;;;;;-145.69;100.00;52470.13;5074971;28;20198;-80
2023/04/02 09:24:25;;;;;;;0.40;0.40;;;;;;;-145.69;100.00;52468.16;5074970;28;20226;-80
2023/04/02 09:26:54;;;;;;;0.50;0.50;;;;;;;-145.69;100.00;52446.38;5074489;28;20210;-80
2023/04/02 09:29:43;;;;;;;0.63;0.60;;;;;;;-145.69;100.00;52460.22;5075243;28;20704;-81
2023/04/02 09:32:39;;;;;;;0.93;0.70;;;;;;;-145.69;100.00;52474.09;5075077;28;20632;-80
2023/04/02 09:35:11;;;;;;;0.40;0.40;;;;;;;-145.69;100.00;52476.06;5074277;28;20557;-81
2023/04/02 09:37:39;;;;;;;0.53;0.53;;;;;;;-145.69;100.00;52424.59;5074292;28;20190;-81
2023/04/02 09:40:19;;;;;;;0.40;0.40;;;;;;;-145.69;100.00;52448.34;5074691;28;20668;-81
2023/04/02 09:42:45;;;;;;;0.57;0.57;;;;;;;-145.69;100.00;52450.31;5074365;28;20230;-81
2023/04/02 09:45:15;;;;;;;1.25;0.80;;;;;;;-145.69;98.75;52420.63;5074836;28;20288;-81
2023/04/02 09:47:42;;;;;;;0.82;0.65;;;;;;;-145.69;99.47;52456.28;5074702;28;20293;-81
2023/04/02 09:50:30;;;;;;;0.50;0.50;;;;;;;-145.69;99.15;52456.28;5074426;28;20222;-81
2023/04/02 09:53:17;;;;;;;0.40;0.40;;;;;;;-145.69;99.90;52396.84;5070121;28;20202;-81
2023/04/02 09:55:43;;;;;;;3.55;0.40;;;;;;;-145.69;96.47;52428.53;5073071;28;20260;-84
2023/04/02 09:58:15;;;;;;;1.75;0.50;;;;;;;-145.69;95.03;52442.41;5078897;28;20198;-82
2023/04/02 10:00:50;;;;;;;0.35;0.35;;;;;;;-145.69;95.37;52440.44;5075635;28;20210;-83
2023/04/02 10:03:23;;;;;;;0.40;0.40;;;;;;;-145.69;89.28;52456.28;5074105;28;20202;-83
2023/04/02 10:06:04;;;;;;;0.57;0.50;;;;;;;-145.69;89.19;52440.44;5076493;28;20199;-84
2023/04/02 10:08:32;;;;;;;1.95;0.60;;;;;;;-145.69;90.37;52428.53;5078665;28;20227;-84
2023/04/02 10:11:01;;;;;;;0.50;0.50;;;;;;;-145.69;93.55;52460.22;5077535;28;20227;-83
2023/04/02 10:13:32;;;;;;;0.60;0.60;;;;;;;-145.69;100.00;52438.44;5077246;28;20202;-84
2023/04/02 10:16:03;;;;;;;0.50;0.50;;;;;;;-145.69;91.38;52418.63;5076417;28;20258;-84
2023/04/02 10:18:41;;;;;;;0.50;0.50;;;;;;;-145.69;91.17;52432.50;5076816;28;20198;-83
2023/04/02 10:21:12;;;;;;;0.40;0.40;;;;;;;-145.69;90.60;52426.56;5078283;28;20194;-82
2023/04/02 10:23:40;;;;;;;0.73;0.55;;;;;;;-145.69;96.18;52454.28;5075610;28;20199;-83
2023/04/02 10:26:23;;;;;;;0.75;0.50;;;;;;;-145.69;88.42;52424.59;5074574;28;20214;-82
2023/04/02 10:29:04;;;;;;;0.57;0.50;;;;;;;-145.69;92.97;52420.63;5074773;28;20206;-83
2023/04/02 10:31:40;;;;;;;0.45;0.45;;;;;;;-145.69;95.11;52412.69;5074216;28;20711;-83
2023/04/02 10:34:17;;;;;;;0.43;0.30;;;;;;;-145.69;91.82;52392.91;5074787;28;20545;-83
2023/04/02 10:36:50;;;;;;;1.48;0.45;;;;;;;-145.69;78.73;52412.69;5074512;28;20202;-83
2023/04/02 10:39:23;;;;;;;0.30;0.30;;;;;;;-145.69;79.82;52444.38;5074464;28;20203;-84
2023/04/02 10:41:56;;;;;;;0.60;0.50;;;;;;;-145.69;87.22;52416.66;5075702;28;20190;-82
2023/04/02 10:44:39;;;;;;;0.52;0.50;;;;;;;-145.69;80.79;52418.63;5074433;28;20325;-82
2023/04/02 10:47:22;;;;;;;0.75;0.30;;;;;;;-145.69;85.07;52412.69;5073362;28;20198;-82
2023/04/02 10:49:56;;;;;;;0.43;0.43;;;;;;;-145.69;82.99;52438.44;5073847;28;20233;-82
2023/04/02 10:52:29;;;;;;;0.80;0.57;;;;;;;-145.69;86.58;52428.53;5073494;28;20198;-82
2023/04/02 10:55:02;;;;;;;0.40;0.40;;;;;;;-145.69;83.35;52428.53;5073429;28;20600;-82
2023/04/02 10:57:36;;;;;;;0.30;0.30;;;;;;;-145.69;85.88;52400.81;5074120;28;20224;-82
2023/04/02 11:00:15;;;;;;;4.65;0.40;;;;;;;-145.69;80.87;52420.63;5073374;28;20198;-82
2023/04/02 11:02:47;;;;;;;0.47;0.30;;;;;;;-145.69;70.10;52424.59;5073327;28;20205;-83
2023/04/02 11:05:20;;;;;;;0.30;0.30;;;;;;;-145.69;68.40;52373.09;5073492;28;20531;-82
2023/04/02 11:07:59;;;;;;;0.57;0.40;;;;;;;-145.69;72.20;52390.91;5073432;28;20207;-82
2023/04/02 11:10:32;;;;;;;1.13;0.50;;;;;;;-145.69;69.59;52406.75;5073567;28;20229;-83
2023/04/02 11:13:05;;;;;;;0.20;0.20;;;;;;;-145.69;64.99;52371.13;5073392;28;20252;-82
2023/04/02 11:15:32;;;;;;;0.35;0.35;;;;;;;-145.69;64.54;52402.78;5073546;28;20206;-83
2023/04/02 11:17:58;;;;;;;0.30;0.30;;;;;;;-145.69;78.58;52388.94;5076046;28;20202;-82
2023/04/02 11:21:04;;;;;;;1.75;0.40;;;;;;;-145.69;70.87;52392.91;5074599;28;20669;-82
2023/04/02 11:23:56;;;;;;;0.40;0.30;;;;;;;-145.69;67.28;52371.13;5058137;28;20198;-82
2023/04/02 11:26:46;;;;;;;1.05;0.30;;;;;;;-145.69;79.68;52424.59;5072697;28;20203;-81
2023/04/02 11:29:21;;;;;;;0.50;0.50;;;;;;;-145.69;80.17;52420.63;5073135;28;20256;-82
2023/04/02 11:31:49;;;;;;;1.40;0.50;;;;;;;-145.69;85.78;52420.63;5073056;28;20241;-82
2023/04/02 11:34:54;;;;;;;0.80;0.40;;;;;;;-145.69;88.41;52388.94;5073013;28;20199;-82